METAR Data
IDs: Format: Raw Decoded Include TAF

Data at: 1348 UTC 22 Apr 2021

KSFB 221253Z 36009KT 10SM CLR 17/08 A3012 RMK AO2 SLP200 T01670083
KSFB 221153Z 36007KT 10SM CLR 16/08 A3011 RMK AO2 SLP194 T01560078 10183 20156 53024
KSFB 221053Z 36008KT 10SM CLR 16/08 A3008 RMK AO2 SLP186 T01560083
KSFB 220953Z AUTO 36013KT 10SM CLR 17/08 A3006 RMK AO2 SLP176 T01670083
KSFB 220853Z AUTO 35012KT 10SM CLR 18/12 A3004 RMK AO2 SLP170 T01780117 53008
KSFB 220753Z AUTO 34009KT 10SM CLR 18/15 A3000 RMK AO2 SLP158 T01780150
KSFB 220653Z AUTO 32009KT 10SM CLR 17/14 A2999 RMK AO2 SLP155 T01720144
KSFB 220553Z AUTO 29005KT 10SM CLR 17/13 A3001 RMK AO2 SLP162 T01720133 10250 20167 50001
KSFB 220453Z AUTO 28005KT 10SM CLR 18/13 A3002 RMK AO2 SLP165 T01780128 402890178
KSFB 220353Z AUTO 26007KT 10SM CLR 19/12 A3002 RMK AO2 SLP166 T01940122
KSFB 220253Z 27009KT 10SM CLR 21/11 A3001 RMK AO2 SLP162 T02060111 53020
KSFB 220153Z 25009KT 10SM CLR 22/11 A2999 RMK AO2 SLP154 T02220106
KSFB 220053Z 25008KT 10SM CLR 23/11 A2997 RMK AO2 SLP148 T02330111
KSFB 212353Z 26012KT 10SM CLR 25/12 A2995 RMK AO2 SLP141 T02500117 10289 20250 53009
KSFB 212253Z 27010KT 10SM CLR 27/11 A2993 RMK AO2 SLP135 T02720106
KSFB 212153Z 26007G15KT 10SM CLR 28/12 A2993 RMK AO2 SLP134 T02830117
KSFB 212053Z 28008KT 10SM CLR 28/12 A2993 RMK AO2 SLP133 T02830122 56016
KSFB 211953Z 28010KT 10SM CLR 28/12 A2994 RMK AO2 SLP136 T02830117
KSFB 211853Z 25009KT 10SM FEW049 28/16 A2996 RMK AO2 SLP143 T02830156
KSFB 211753Z 30006KT 10SM FEW047 26/16 A2997 RMK AO2 SLP148 T02610156 10272 20194 58009
KSFB 211653Z 34009KT 10SM FEW033 26/16 A2998 RMK AO2 SLP152 T02610161
KSFB 211553Z VRB05KT 10SM SCT019 BKN070 24/17 A3002 RMK AO2 SLP163 T02440172
KSFB 211453Z 29006KT 10SM SCT019 BKN070 23/18 A3000 RMK AO2 SLP157 T02280183 52004
KSFB 211426Z 29006KT 10SM SCT012 22/18 A3000 RMK AO2 T02170183
KSFB 211353Z 33006KT 10SM BKN007 BKN012 BKN070 21/19 A3000 RMK AO2 SLP157 T02110194
KSFB 211253Z 32007KT 10SM BKN003 BKN075 20/19 A2999 RMK AO2 SLP154 T02000194
KSFB 211153Z 30004KT 4SM BR OVC003 19/19 A2999 RMK AO2 SLP153 60003 70029 T01940194 10194 20189 53012
KSFB 211136Z 29005KT 2SM BR OVC002 19/19 A2998 RMK AO2 T01940194
KSFB 211129Z 31005KT 3/4SM BR OVC002 19/19 A2998 RMK AO2 T01940194
KSFB 211117Z 31004KT 1 3/4SM BR OVC004 19/19 A2998 RMK AO2 T01940194
KSFB 211102Z 27003KT 4SM BR BKN004 BKN110 19/19 A2997 RMK AO2 T01940194
KSFB 211053Z 27003KT 4SM BR FEW004 SCT110 19/19 A2997 RMK AO2 SLP148 T01890189
KSFB 210953Z AUTO 25004KT 7SM FEW026 BKN035 BKN100 19/19 A2995 RMK AO2 SLP141 T01940194
KSFB 210907Z AUTO 25003KT 7SM SCT018 BKN023 OVC040 19/19 A2995 RMK AO2 T01940194
KSFB 210853Z AUTO 25003KT 7SM FEW019 OVC040 19/19 A2995 RMK AO2 RAB07E27 SLP141 P0001 60003 T01940194 53004
KSFB 210836Z AUTO 23003KT 8SM SCT019 OVC037 19/19 A2995 RMK AO2 RAB07E27 P0001 T01940194
KSFB 210801Z AUTO 24006KT 9SM BKN017 BKN100 19/19 A2995 RMK AO2 T01940194
KSFB 210753Z AUTO 22005KT 10SM SCT017 BKN031 BKN100 19/19 A2994 RMK AO2 RAE10 SLP139 P0001 T01940194
KSFB 210709Z AUTO 24005KT 10SM -RA FEW021 BKN026 OVC110 19/19 A2995 RMK AO2 P0001 T01890189
KSFB 210653Z AUTO 20005KT 10SM -RA FEW024 FEW050 OVC110 19/19 A2994 RMK AO2 RAB20 SLP137 P0001 T01890189
KSFB 210553Z AUTO 20004KT 10SM CLR 19/19 A2994 RMK AO2 SLP137 T01890189 10194 20183 58007
KSFB 210453Z AUTO 18004KT 10SM CLR 18/18 A2995 RMK AO2 SLP143 T01830183 402110178
KSFB 210353Z AUTO 19004KT 10SM CLR 19/19 A2996 RMK AO2 SLP143 T01890189
KSFB 210321Z AUTO 17004KT 10SM OVC030 19/19 A2996 RMK AO2 T01890189
KSFB 210253Z AUTO 00000KT 10SM BKN027 19/19 A2996 RMK AO2 SLP145 T01890189 51007
KSFB 210248Z AUTO 00000KT 10SM BKN027 19/19 A2996 RMK AO2
KSFB 210153Z 00000KT 10SM CLR 19/19 A2995 RMK AO2 SLP141 T01890189